createdAt,value
2018-02-04T00:00:00.522Z,99352.80
2018-02-04T00:02:29.217Z,99356.59
2018-02-04T00:04:57.609Z,99355.67
2018-02-04T00:07:26.046Z,99358.55
2018-02-04T00:09:54.472Z,99372.03
2018-02-04T00:12:22.857Z,99375.56
2018-02-04T00:14:51.237Z,99379.92
2018-02-04T00:17:19.723Z,99384.83
2018-02-04T00:19:48.097Z,99385.81
2018-02-04T00:22:28.454Z,99380.14
2018-02-04T00:24:56.863Z,99380.84
2018-02-04T00:27:25.246Z,99391.97
2018-02-04T00:29:53.678Z,99396.19
2018-02-04T00:32:22.050Z,99400.55
2018-02-04T00:34:50.429Z,99397.89
2018-02-04T00:37:19.680Z,99403.83
2018-02-04T00:39:48.059Z,99413.55
2018-02-04T00:42:16.451Z,99415.39
2018-02-04T00:44:44.861Z,99419.83
2018-02-04T00:47:13.233Z,99420.80
2018-02-04T00:49:41.609Z,99421.86
2018-02-04T00:52:10.053Z,99429.45
2018-02-04T00:54:38.441Z,99426.06
2018-02-04T00:57:06.815Z,99429.14
2018-02-04T00:59:35.242Z,99438.16
2018-02-04T01:02:03.625Z,99442.89
2018-02-04T01:04:32.007Z,99438.80
2018-02-04T01:07:00.447Z,99446.05
2018-02-04T01:09:28.817Z,99452.95
2018-02-04T01:11:57.225Z,99462.69
2018-02-04T01:14:25.651Z,99460.89
2018-02-04T01:16:54.035Z,99464.56
2018-02-04T01:19:22.420Z,99471.48
2018-02-04T01:21:50.861Z,99468.47
2018-02-04T01:24:19.250Z,99476.31
2018-02-04T01:26:47.637Z,99465.05
2018-02-04T01:29:16.041Z,99473.31
2018-02-04T01:31:44.425Z,99479.66
2018-02-04T01:34:12.816Z,99478.73
2018-02-04T01:36:41.243Z,99482.34
2018-02-04T01:39:09.633Z,99477.41
2018-02-04T01:41:38.024Z,99478.09
2018-02-04T01:44:06.461Z,99483.87
2018-02-04T01:46:34.835Z,99485.19
2018-02-04T01:49:03.206Z,99492.65
2018-02-04T01:51:31.664Z,99498.73
2018-02-04T01:54:00.044Z,99500.39
2018-02-04T01:56:28.408Z,99497.37
2018-02-04T01:58:56.841Z,99505.32
2018-02-04T02:01:25.231Z,99509.44
2018-02-04T02:03:53.626Z,99508.31
2018-02-04T02:06:22.042Z,99510.65
2018-02-04T02:08:50.487Z,99519.70
2018-02-04T02:11:18.868Z,99517.41
2018-02-04T02:13:47.299Z,99520.90
2018-02-04T02:16:15.686Z,99522.59
2018-02-04T02:18:44.062Z,99524.23
2018-02-04T02:21:12.485Z,99533.36
2018-02-04T02:23:40.852Z,99532.08
2018-02-04T02:26:09.232Z,99536.67
2018-02-04T02:28:37.659Z,99539.62
2018-02-04T02:31:06.059Z,99546.09
2018-02-04T02:33:34.472Z,99539.14
2018-02-04T02:36:02.947Z,99546.44
2018-02-04T02:38:31.335Z,99547.06
2018-02-04T02:40:59.714Z,99544.14
2018-02-04T02:43:28.218Z,99546.92
2018-02-04T02:45:56.601Z,99548.57
2018-02-04T02:48:24.998Z,99549.88
2018-02-04T02:50:53.417Z,99556.77
2018-02-04T02:53:21.852Z,99553.30
2018-02-04T02:55:50.265Z,99559.66
2018-02-04T02:58:18.718Z,99568.52
2018-02-04T03:00:47.112Z,99570.97
2018-02-04T03:03:15.500Z,99572.20
2018-02-04T03:05:43.932Z,99576.94
2018-02-04T03:08:12.323Z,99586.43
2018-02-04T03:10:40.724Z,99580.16
2018-02-04T03:13:09.149Z,99588.52
2018-02-04T03:15:37.576Z,99592.21
2018-02-04T03:18:05.962Z,99598.91
2018-02-04T03:20:34.402Z,99601.36
2018-02-04T03:23:02.809Z,99602.08
2018-02-04T03:25:31.190Z,99603.11
2018-02-04T03:27:59.628Z,99607.68
2018-02-04T03:30:28.022Z,99612.87
2018-02-04T03:32:56.443Z,99618.61
2018-02-04T03:35:24.861Z,99622.26
2018-02-04T03:37:53.242Z,99629.44
2018-02-04T03:40:21.626Z,99625.98
2018-02-04T03:42:50.046Z,99629.42
2018-02-04T03:45:18.465Z,99636.08
2018-02-04T03:47:46.910Z,99633.19
2018-02-04T03:50:15.409Z,99645.62
2018-02-04T03:52:43.821Z,99646.51
2018-02-04T03:55:12.198Z,99648.58
2018-02-04T03:57:40.623Z,99657.05
2018-02-04T04:00:09.027Z,99661.69
2018-02-04T04:02:37.433Z,99670.00
2018-02-04T04:07:40.790Z,99675.50
2018-02-04T04:10:09.247Z,99677.75
2018-02-04T04:12:37.633Z,99684.73
2018-02-04T04:15:06.036Z,99684.91
2018-02-04T04:17:34.496Z,99684.73
2018-02-04T04:20:02.902Z,99692.28
2018-02-04T04:22:31.307Z,99695.59
2018-02-04T04:24:59.753Z,99697.11
2018-02-04T04:27:28.159Z,99694.45
2018-02-04T04:29:56.565Z,99702.93
2018-02-04T04:32:25.022Z,99708.02
2018-02-04T04:34:53.434Z,99710.05
2018-02-04T04:37:21.869Z,99716.39
2018-02-04T04:39:50.331Z,99715.31
2018-02-04T04:42:18.726Z,99723.41
2018-02-04T04:44:47.118Z,99723.06
2018-02-04T04:47:15.545Z,99732.89
2018-02-04T04:49:43.931Z,99735.34
2018-02-04T04:52:12.361Z,99741.89
2018-02-04T04:54:40.816Z,99741.82
2018-02-04T04:57:09.238Z,99749.27
2018-02-04T04:59:37.656Z,99754.48
2018-02-04T05:02:06.100Z,99756.01
2018-02-04T05:04:34.494Z,99756.56
2018-02-04T05:07:02.914Z,99761.06
2018-02-04T05:09:31.355Z,99762.41
2018-02-04T05:11:59.761Z,99764.63
2018-02-04T05:14:28.160Z,99770.68
2018-02-04T05:16:56.603Z,99762.41
2018-02-04T05:19:24.999Z,99778.05
2018-02-04T05:21:53.391Z,99775.56
2018-02-04T05:24:21.842Z,99776.46
2018-02-04T05:26:50.272Z,99779.47
2018-02-04T05:29:18.662Z,99781.23
2018-02-04T05:31:47.124Z,99784.70
2018-02-04T05:34:15.568Z,99786.70
2018-02-04T05:36:43.976Z,99801.86
2018-02-04T05:39:12.405Z,99799.27
2018-02-04T05:41:40.789Z,99801.34
2018-02-04T05:44:09.213Z,99798.95
2018-02-04T05:46:37.692Z,99809.30
2018-02-04T05:49:06.145Z,99819.67
2018-02-04T05:51:34.548Z,99825.08
2018-02-04T05:54:03.026Z,99828.91
2018-02-04T05:56:31.483Z,99824.98
2018-02-04T05:58:59.896Z,99833.87
2018-02-04T06:01:28.326Z,99826.50
2018-02-04T06:03:56.720Z,99836.91
2018-02-04T06:06:25.140Z,99841.52
2018-02-04T06:08:53.738Z,99842.88
2018-02-04T06:11:22.125Z,99850.52
2018-02-04T06:13:50.539Z,99847.75
2018-02-04T06:16:18.961Z,99856.26
2018-02-04T06:18:47.389Z,99863.63
2018-02-04T06:21:15.834Z,99867.56
2018-02-04T06:23:44.322Z,99870.92
2018-02-04T06:26:12.733Z,99874.75
2018-02-04T06:28:41.129Z,99877.15
2018-02-04T06:31:09.574Z,99883.95
2018-02-04T06:33:38.008Z,99886.64
2018-02-04T06:36:06.422Z,99888.08
2018-02-04T06:38:35.022Z,99910.09
2018-02-04T06:41:03.406Z,99907.69
2018-02-04T06:43:31.801Z,99908.11
2018-02-04T06:46:00.238Z,99920.22
2018-02-04T06:48:28.658Z,99918.91
2018-02-04T06:50:57.077Z,99927.86
2018-02-04T06:53:25.514Z,99937.50
2018-02-04T06:55:53.974Z,99940.97
2018-02-04T06:58:22.425Z,99944.39
2018-02-04T07:00:50.892Z,99951.46
2018-02-04T07:03:19.329Z,99952.45
2018-02-04T07:05:47.738Z,99960.08
2018-02-04T07:08:16.180Z,99969.58
2018-02-04T07:10:44.732Z,99974.64
2018-02-04T07:13:13.148Z,99988.50
2018-02-04T07:15:41.611Z,99985.87
2018-02-04T07:18:10.030Z,99995.08
2018-02-04T07:20:38.421Z,99998.31
2018-02-04T07:23:06.870Z,100003.47
2018-02-04T07:25:35.309Z,100017.20
2018-02-04T07:28:03.728Z,100020.66
2018-02-04T07:30:32.185Z,100027.46
2018-02-04T07:33:00.601Z,100035.61
2018-02-04T07:35:29.024Z,100032.56
2018-02-04T07:37:57.490Z,100046.80
2018-02-04T07:40:25.889Z,100044.34
2018-02-04T07:42:54.349Z,100051.48
2018-02-04T07:45:22.808Z,100057.16
2018-02-04T07:47:51.225Z,100062.88
2018-02-04T07:50:19.639Z,100067.01
2018-02-04T07:52:48.112Z,100075.54
2018-02-04T07:55:16.516Z,100071.72
2018-02-04T07:57:44.971Z,100077.81
2018-02-04T08:00:13.417Z,100081.67
2018-02-04T08:02:41.861Z,100083.75
2018-02-04T08:05:10.294Z,100083.82
2018-02-04T08:07:38.771Z,100089.56
2018-02-04T08:10:07.190Z,100091.71
2018-02-04T08:12:35.581Z,100102.08
2018-02-04T08:15:04.126Z,100101.69
2018-02-04T08:17:32.527Z,100107.63
2018-02-04T08:20:00.962Z,100110.48
2018-02-04T08:22:29.419Z,100118.73
2018-02-04T08:24:57.834Z,100119.50
2018-02-04T08:27:26.260Z,100124.19
2018-02-04T08:29:54.698Z,100127.05
2018-02-04T08:32:23.109Z,100122.77
2018-02-04T08:34:51.520Z,100124.53
2018-02-04T08:37:20.006Z,100130.60
2018-02-04T08:39:48.418Z,100135.45
2018-02-04T08:42:16.838Z,100141.03
2018-02-04T08:44:45.309Z,100141.25
2018-02-04T08:47:13.710Z,100142.24
2018-02-04T08:49:42.127Z,100146.47
2018-02-04T08:52:10.597Z,100153.91
2018-02-04T08:54:39.040Z,100154.94
2018-02-04T08:57:07.461Z,100164.45
2018-02-04T08:59:35.948Z,100162.77
2018-02-04T09:02:04.370Z,100171.31
2018-02-04T09:04:32.788Z,100170.05
2018-02-04T09:07:01.257Z,100178.89
2018-02-04T09:09:29.784Z,100183.37
2018-02-04T09:11:58.200Z,100187.41
2018-02-04T09:14:26.884Z,100191.21
2018-02-04T09:16:55.300Z,100197.41
2018-02-04T09:19:23.716Z,100200.91
2018-02-04T09:21:52.169Z,100201.80
2018-02-04T09:24:20.595Z,100203.88
2018-02-04T09:26:49.022Z,100210.65
2018-02-04T09:29:17.489Z,100206.09
2018-02-04T09:31:45.897Z,100211.28
2018-02-04T09:34:14.333Z,100215.91
2018-02-04T09:36:42.779Z,100207.81
2018-02-04T09:39:11.185Z,100214.28
2018-02-04T09:41:39.581Z,100213.41
2018-02-04T09:44:08.056Z,100216.51
2018-02-04T09:46:36.481Z,100222.04
2018-02-04T09:49:04.889Z,100227.97
2018-02-04T09:51:33.345Z,100227.88
2018-02-04T09:54:01.764Z,100237.98
2018-02-04T09:56:30.186Z,100239.64
2018-02-04T09:58:58.653Z,100241.34
2018-02-04T10:01:27.054Z,100239.77
2018-02-04T10:03:55.447Z,100240.39
2018-02-04T10:06:23.946Z,100245.02
2018-02-04T10:08:52.345Z,100249.72
2018-02-04T10:11:20.856Z,100249.31
2018-02-04T10:13:49.344Z,100252.12
2018-02-04T10:16:17.781Z,100255.77
2018-02-04T10:18:46.218Z,100265.62
2018-02-04T10:21:14.680Z,100268.23
2018-02-04T10:23:43.090Z,100282.30
2018-02-04T10:26:11.494Z,100271.91
2018-02-04T10:28:40.060Z,100270.52
2018-02-04T10:31:08.486Z,100271.55
2018-02-04T10:33:36.922Z,100268.31
2018-02-04T10:36:05.416Z,100262.73
2018-02-04T10:38:33.840Z,100273.91
2018-02-04T10:41:02.255Z,100278.52
2018-02-04T10:43:30.725Z,100280.55
2018-02-04T10:45:59.167Z,100295.18
2018-02-04T10:48:27.568Z,100290.34
2018-02-04T10:53:58.190Z,100304.92
2018-02-04T10:56:26.661Z,100303.12
2018-02-04T10:58:55.094Z,100311.37
2018-02-04T11:01:23.494Z,100319.34
2018-02-04T11:03:51.953Z,100310.45
2018-02-04T11:06:20.550Z,100317.61
2018-02-04T11:08:49.118Z,100324.84
2018-02-04T11:11:17.873Z,100319.23
2018-02-04T11:13:46.527Z,100314.37
2018-02-04T11:16:15.206Z,100315.27
2018-02-04T11:18:43.915Z,100314.28
2018-02-04T11:21:12.507Z,100316.30
2018-02-04T11:23:41.058Z,100324.64
2018-02-04T11:26:09.794Z,100327.10
2018-02-04T11:28:38.686Z,100334.19
2018-02-04T11:31:19.398Z,100335.56
2018-02-04T11:33:48.057Z,100339.34
2018-02-04T11:36:16.857Z,100345.31
2018-02-04T11:38:45.554Z,100343.41
2018-02-04T11:41:14.141Z,100350.14
2018-02-04T11:43:42.677Z,100350.88
2018-02-04T11:46:11.160Z,100355.20
2018-02-04T11:48:39.573Z,100362.03
2018-02-04T11:51:08.007Z,100368.14
2018-02-04T11:53:36.483Z,100367.20
2018-02-04T11:56:04.912Z,100373.92
2018-02-04T11:58:33.346Z,100377.26
2018-02-04T12:01:01.818Z,100371.53
2018-02-04T12:03:30.230Z,100379.80
2018-02-04T12:05:58.663Z,100382.78
2018-02-04T12:08:27.097Z,100388.97
2018-02-04T12:10:55.514Z,100390.25
2018-02-04T12:13:23.917Z,100386.77
2018-02-04T12:15:52.366Z,100389.82
2018-02-04T12:18:20.766Z,100394.14
2018-02-04T12:20:49.430Z,100401.04
2018-02-04T12:23:18.126Z,100402.83
2018-02-04T12:25:46.650Z,100407.06
2018-02-04T12:28:15.304Z,100405.48
2018-02-04T12:30:44.075Z,100403.78
2018-02-04T12:33:12.508Z,100403.16
2018-02-04T12:35:40.993Z,100399.23
2018-02-04T12:38:10.194Z,100407.19
2018-02-04T12:40:38.716Z,100410.48
2018-02-04T12:43:07.384Z,100411.62
2018-02-04T12:45:36.001Z,100410.28
2018-02-04T12:48:04.703Z,100415.78
2018-02-04T12:50:33.421Z,100413.92
2018-02-04T12:53:02.212Z,100410.78
2018-02-04T12:55:30.907Z,100412.46
2018-02-04T12:57:59.587Z,100417.45
2018-02-04T13:00:28.269Z,100424.57
2018-02-04T13:02:56.920Z,100429.77
2018-02-04T13:05:25.691Z,100427.80
2018-02-04T13:07:54.364Z,100429.36
2018-02-04T13:10:22.997Z,100429.77
2018-02-04T13:12:51.446Z,100428.05
2018-02-04T13:15:20.198Z,100428.55
2018-02-04T13:17:48.598Z,100439.02
2018-02-04T13:20:16.991Z,100437.58
2018-02-04T13:22:45.460Z,100434.20
2018-02-04T13:25:13.876Z,100440.30
2018-02-04T13:27:42.276Z,100443.07
2018-02-04T13:30:10.752Z,100440.81
2018-02-04T13:32:39.169Z,100451.36
2018-02-04T13:35:07.561Z,100450.34
2018-02-04T13:37:36.024Z,100446.04
2018-02-04T13:40:04.441Z,100452.22
2018-02-04T13:42:32.865Z,100454.37
2018-02-04T13:45:01.335Z,100454.98
2018-02-04T13:47:29.738Z,100454.77
2018-02-04T13:49:58.143Z,100461.69
2018-02-04T13:52:26.685Z,100464.29
2018-02-04T13:54:55.088Z,100471.02
2018-02-04T13:57:23.473Z,100469.50
2018-02-04T13:59:52.028Z,100474.41
2018-02-04T14:02:20.444Z,100475.30
2018-02-04T14:04:48.920Z,100473.14
2018-02-04T14:07:17.402Z,100469.72
2018-02-04T14:09:45.812Z,100476.31
2018-02-04T14:12:14.217Z,100477.24
2018-02-04T14:14:42.646Z,100487.95
2018-02-04T14:17:11.047Z,100487.41
2018-02-04T14:19:39.480Z,100489.91
2018-02-04T14:22:07.940Z,100490.05
2018-02-04T14:24:36.363Z,100496.75
2018-02-04T14:27:04.785Z,100494.30
2018-02-04T14:29:33.244Z,100501.53
2018-02-04T14:32:01.729Z,100497.41
2018-02-04T14:34:30.142Z,100502.85
2018-02-04T14:36:58.632Z,100501.75
2018-02-04T14:39:27.061Z,100512.19
2018-02-04T14:41:55.490Z,100511.91
2018-02-04T14:44:24.018Z,100516.45
2018-02-04T14:46:52.426Z,100521.49
2018-02-04T14:49:20.822Z,100517.16
2018-02-04T14:51:49.307Z,100517.73
2018-02-04T14:54:17.713Z,100521.73
2018-02-04T14:56:46.125Z,100527.52
2018-02-04T14:59:14.595Z,100524.28
2018-02-04T15:01:43.010Z,100528.51
2018-02-04T15:04:11.414Z,100528.34
2018-02-04T15:06:39.905Z,100528.55
2018-02-04T15:09:08.316Z,100532.36
2018-02-04T15:11:36.727Z,100538.91
2018-02-04T15:14:05.185Z,100545.95
2018-02-04T15:16:33.596Z,100551.84
2018-02-04T15:19:02.001Z,100555.69
2018-02-04T15:21:30.488Z,100558.49
2018-02-04T15:23:59.200Z,100557.38
2018-02-04T15:26:27.612Z,100564.12
2018-02-04T15:28:56.096Z,100565.64
2018-02-04T15:31:24.497Z,100563.81
2018-02-04T15:33:52.895Z,100563.83
2018-02-04T15:36:21.368Z,100571.26
2018-02-04T15:38:49.765Z,100575.48
2018-02-04T15:41:18.188Z,100576.89
2018-02-04T15:43:46.676Z,100575.38
2018-02-04T15:46:15.090Z,100585.80
2018-02-04T15:48:43.505Z,100587.92
2018-02-04T15:51:11.957Z,100591.03
2018-02-04T15:53:40.374Z,100602.80
2018-02-04T15:56:08.802Z,100598.95
2018-02-04T15:58:37.238Z,100600.09
2018-02-04T16:01:05.647Z,100602.48
2018-02-04T16:03:34.047Z,100605.77
2018-02-04T16:06:02.479Z,100606.81
2018-02-04T16:08:30.874Z,100622.14
2018-02-04T16:10:59.300Z,100622.28
2018-02-04T16:13:27.776Z,100626.81
2018-02-04T16:15:56.185Z,100626.37
2018-02-04T16:18:24.624Z,100628.64
2018-02-04T16:20:53.061Z,100634.88
2018-02-04T16:23:21.485Z,100643.12
2018-02-04T16:25:49.930Z,100643.33
2018-02-04T16:28:18.454Z,100646.66
2018-02-04T16:30:46.872Z,100646.06
2018-02-04T16:33:15.284Z,100649.20
2018-02-04T16:35:43.754Z,100648.78
2018-02-04T16:38:12.178Z,100646.09
2018-02-04T16:40:40.583Z,100659.63
2018-02-04T16:43:09.038Z,100659.12
2018-02-04T16:45:37.460Z,100661.25
2018-02-04T16:48:05.891Z,100669.22
2018-02-04T16:50:34.540Z,100670.09
2018-02-04T16:53:02.955Z,100665.47
2018-02-04T16:55:31.345Z,100679.70
2018-02-04T16:57:59.930Z,100673.83
2018-02-04T17:00:28.326Z,100679.12
2018-02-04T17:02:56.745Z,100681.37
2018-02-04T17:05:25.203Z,100683.66
2018-02-04T17:07:53.645Z,100692.33
2018-02-04T17:10:22.047Z,100703.56
2018-02-04T17:12:50.542Z,100705.59
2018-02-04T17:15:18.970Z,100703.88
2018-02-04T17:17:47.369Z,100707.91
2018-02-04T17:20:15.842Z,100706.59
2018-02-04T17:22:44.275Z,100705.67
2018-02-04T17:25:12.674Z,100712.77
2018-02-04T17:27:41.109Z,100716.45
2018-02-04T17:30:09.522Z,100724.77
2018-02-04T17:32:37.946Z,100727.89
2018-02-04T17:35:06.394Z,100729.69
2018-02-04T17:37:34.805Z,100729.41
2018-02-04T17:40:03.233Z,100732.02
2018-02-04T17:42:31.798Z,100733.31
2018-02-04T17:45:00.250Z,100736.17
2018-02-04T17:47:28.646Z,100742.90
2018-02-04T17:49:57.176Z,100739.39
2018-02-04T17:52:25.618Z,100747.75
2018-02-04T17:54:54.027Z,100745.67
2018-02-04T17:57:22.485Z,100750.16
2018-02-04T17:59:50.891Z,100756.84
2018-02-04T18:02:19.317Z,100752.09
2018-02-04T18:04:47.780Z,100763.09
2018-02-04T18:07:16.201Z,100764.97
2018-02-04T18:09:44.630Z,100766.31
2018-02-04T18:12:13.092Z,100771.08
2018-02-04T18:14:41.494Z,100772.50
2018-02-04T18:17:09.910Z,100771.58
2018-02-04T18:19:38.383Z,100765.66
2018-02-04T18:22:06.775Z,100774.02
2018-02-04T18:24:35.198Z,100776.39
2018-02-04T18:27:03.642Z,100778.55
2018-02-04T18:29:32.081Z,100776.53
2018-02-04T18:32:00.489Z,100775.97
2018-02-04T18:34:28.933Z,100780.00
2018-02-04T18:36:57.500Z,100785.41
2018-02-04T18:39:25.897Z,100789.44
2018-02-04T18:41:54.363Z,100794.48
2018-02-04T18:44:22.790Z,100808.98
2018-02-04T18:46:51.220Z,100804.38
2018-02-04T18:49:19.673Z,100803.05
2018-02-04T18:51:48.078Z,100808.55
2018-02-04T18:54:16.509Z,100809.75
2018-02-04T18:56:45.000Z,100812.63
2018-02-04T18:59:13.437Z,100812.44
2018-02-04T19:01:41.924Z,100810.00
2018-02-04T19:04:10.382Z,100814.78
2018-02-04T19:06:38.814Z,100813.39
2018-02-04T19:09:07.245Z,100813.97
2018-02-04T19:11:35.713Z,100825.73
2018-02-04T19:14:04.133Z,100827.84
2018-02-04T19:16:32.545Z,100826.34
2018-02-04T19:19:01.025Z,100829.69
2018-02-04T19:21:29.486Z,100831.72
2018-02-04T19:23:57.983Z,100832.11
2018-02-04T19:26:26.460Z,100833.69
2018-02-04T19:28:54.911Z,100849.74
2018-02-04T19:31:23.332Z,100854.67
2018-02-04T19:33:51.831Z,100856.28
2018-02-04T19:36:20.263Z,100862.91
2018-02-04T19:38:48.671Z,100861.16
2018-02-04T19:41:17.193Z,100865.80
2018-02-04T19:43:45.954Z,100861.03
2018-02-04T19:46:14.383Z,100865.03
2018-02-04T19:48:42.910Z,100863.30
2018-02-04T19:51:11.318Z,100857.24
2018-02-04T19:53:39.749Z,100861.89
2018-02-04T19:56:08.207Z,100862.19
2018-02-04T19:58:36.610Z,100871.39
2018-02-04T20:01:05.030Z,100877.08
2018-02-04T20:03:33.510Z,100879.29
2018-02-04T20:06:01.924Z,100884.63
2018-02-04T20:08:30.333Z,100888.57
2018-02-04T20:10:58.798Z,100884.37
2018-02-04T20:13:27.219Z,100890.63
2018-02-04T20:15:55.619Z,100890.73
2018-02-04T20:18:24.090Z,100890.56
2018-02-04T20:20:52.490Z,100895.73
2018-02-04T20:23:20.889Z,100897.70
2018-02-04T20:25:49.346Z,100907.00
2018-02-04T20:28:17.791Z,100904.97
2018-02-04T20:30:46.265Z,100904.63
2018-02-04T20:33:23.635Z,100910.60
2018-02-04T20:35:52.201Z,100917.20
2018-02-04T20:38:20.629Z,100921.37
2018-02-04T20:40:49.119Z,100919.02
2018-02-04T20:43:17.523Z,100932.16
2018-02-04T20:45:45.960Z,100930.34
2018-02-04T20:48:14.422Z,100929.87
2018-02-04T20:50:42.821Z,100925.66
2018-02-04T20:53:11.255Z,100926.56
2018-02-04T20:55:39.724Z,100929.42
2018-02-04T20:58:08.133Z,100923.28
2018-02-04T21:00:36.529Z,100919.33
2018-02-04T21:03:04.985Z,100929.84
2018-02-04T21:05:33.405Z,100934.22
2018-02-04T21:08:01.841Z,100936.38
2018-02-04T21:10:30.357Z,100935.55
2018-02-04T21:12:59.705Z,100936.67
2018-02-04T21:15:28.117Z,100943.17
2018-02-04T21:17:56.569Z,100939.55
2018-02-04T21:20:24.982Z,100944.74
2018-02-04T21:22:53.434Z,100947.52
2018-02-04T21:25:21.920Z,100949.34
2018-02-04T21:27:50.366Z,100955.27
2018-02-04T21:30:18.804Z,100954.45
2018-02-04T21:32:47.260Z,100954.77
2018-02-04T21:35:15.700Z,100968.86
2018-02-04T21:37:44.129Z,100963.47
2018-02-04T21:40:12.594Z,100964.98
2018-02-04T21:42:41.016Z,100966.05
2018-02-04T21:45:09.466Z,100975.58
2018-02-04T21:47:37.985Z,100973.38
2018-02-04T21:50:06.420Z,100976.50
2018-02-04T21:52:34.857Z,100978.86
2018-02-04T21:55:03.335Z,100989.25
2018-02-04T21:57:31.794Z,100982.72
2018-02-04T22:00:00.495Z,100981.84
2018-02-04T22:02:28.966Z,100978.72
2018-02-04T22:04:57.412Z,100982.73
2018-02-04T22:07:25.879Z,100981.94
2018-02-04T22:09:54.323Z,100985.30
2018-02-04T22:12:22.736Z,100984.80
2018-02-04T22:14:51.143Z,100987.20
2018-02-04T22:17:19.601Z,100982.27
2018-02-04T22:19:48.030Z,100980.36
2018-02-04T22:22:16.455Z,100983.66
2018-02-04T22:24:45.166Z,100985.70
2018-02-04T22:27:13.581Z,100992.58
2018-02-04T22:29:42.009Z,100996.16
2018-02-04T22:32:10.482Z,101003.37
2018-02-04T22:34:38.902Z,101004.43
2018-02-04T22:37:07.333Z,101002.22
2018-02-04T22:39:35.797Z,101006.76
2018-02-04T22:42:04.213Z,101008.40
2018-02-04T22:44:32.619Z,101012.25
2018-02-04T22:47:01.251Z,101016.22
2018-02-04T22:49:29.688Z,101017.27
2018-02-04T22:51:58.149Z,101019.66
2018-02-04T22:54:26.626Z,101022.28
2018-02-04T22:56:55.080Z,101020.22
2018-02-04T22:59:23.535Z,101026.06
2018-02-04T23:01:52.000Z,101025.17
2018-02-04T23:04:20.425Z,101022.86
2018-02-04T23:06:48.829Z,101037.86
2018-02-04T23:09:17.287Z,101036.27
2018-02-04T23:11:45.704Z,101028.32
2018-02-04T23:14:14.128Z,101026.91
2018-02-04T23:16:42.583Z,101026.28
2018-02-04T23:19:10.989Z,101029.23
2018-02-04T23:21:39.454Z,101023.11
2018-02-04T23:24:07.931Z,101020.16
2018-02-04T23:26:36.348Z,101021.72
2018-02-04T23:29:04.769Z,101022.46
2018-02-04T23:31:33.231Z,101019.58
2018-02-04T23:34:01.647Z,101028.62
2018-02-04T23:36:30.052Z,101024.42
2018-02-04T23:38:58.498Z,101026.98
2018-02-04T23:41:26.901Z,101023.01
2018-02-04T23:43:55.309Z,101026.34
2018-02-04T23:46:23.747Z,101040.65
2018-02-04T23:48:52.174Z,101043.37
2018-02-04T23:51:20.604Z,101044.83
2018-02-04T23:53:49.093Z,101034.06
2018-02-04T23:56:17.560Z,101042.78
2018-02-04T23:58:45.956Z,101036.72
